createdAt,value
2023-01-25T00:01:44.084Z,-0.07
2023-01-25T00:04:12.903Z,-0.02
2023-01-25T00:06:40.154Z,0.01
2023-01-25T00:09:07.764Z,0.05
2023-01-25T00:11:35.420Z,-0.10
2023-01-25T00:14:03.199Z,-0.13
2023-01-25T00:16:30.566Z,-0.26
2023-01-25T00:18:58.440Z,-0.06
2023-01-25T00:21:26.727Z,-0.18
2023-01-25T00:23:54.675Z,-0.30
2023-01-25T00:26:22.420Z,-0.41
2023-01-25T00:28:54.281Z,-0.25
2023-01-25T00:31:33.889Z,-0.16
2023-01-25T00:34:24.299Z,-0.10
2023-01-25T00:36:57.096Z,-0.07
2023-01-25T00:39:26.862Z,-0.15
2023-01-25T00:41:54.737Z,-0.30
2023-01-25T00:44:22.529Z,-0.35
2023-01-25T00:46:49.895Z,-0.32
2023-01-25T00:49:26.268Z,-0.17
2023-01-25T00:51:55.649Z,-0.25
2023-01-25T00:54:24.322Z,-0.17
2023-01-25T00:56:53.965Z,-0.17
2023-01-25T00:59:24.772Z,-0.16
2023-01-25T01:01:53.747Z,-0.23
2023-01-25T01:04:25.177Z,-0.36
2023-01-25T01:06:54.264Z,-0.34
2023-01-25T01:09:22.945Z,-0.34
2023-01-25T01:11:52.802Z,-0.36
2023-01-25T01:14:21.739Z,-0.42
2023-01-25T01:16:49.240Z,-0.51
2023-01-25T01:19:16.895Z,-0.63
2023-01-25T01:21:44.332Z,-0.56
2023-01-25T01:24:12.061Z,-0.56
2023-01-25T01:26:39.398Z,-0.66
2023-01-25T01:29:07.364Z,-0.57
2023-01-25T01:31:34.906Z,-0.58
2023-01-25T01:34:22.486Z,-0.61
2023-01-25T01:36:49.858Z,-0.62
2023-01-25T01:39:17.875Z,-0.64
2023-01-25T01:41:45.343Z,-0.62
2023-01-25T01:44:19.713Z,-0.62
2023-01-25T01:46:58.903Z,-0.57
2023-01-25T01:49:32.896Z,-0.64
2023-01-25T01:52:15.834Z,-0.71
2023-01-25T01:54:55.293Z,-0.72
2023-01-25T01:57:27.104Z,-0.79
2023-01-25T02:00:02.992Z,-0.85
2023-01-25T02:02:41.645Z,-0.91
2023-01-25T02:05:22.877Z,-0.87
2023-01-25T02:07:53.840Z,-0.86
2023-01-25T02:10:24.690Z,-0.88
2023-01-25T02:12:55.707Z,-0.90
2023-01-25T02:15:27.562Z,-0.99
2023-01-25T02:17:56.025Z,-0.91
2023-01-25T02:20:29.812Z,-1.00
2023-01-25T02:23:22.598Z,-0.92
2023-01-25T02:25:50.654Z,-0.91
2023-01-25T02:28:41.205Z,-0.90
2023-01-25T02:31:08.979Z,-1.13
2023-01-25T02:33:37.222Z,-1.27
2023-01-25T02:36:08.116Z,-1.43
2023-01-25T02:38:40.055Z,-1.34
2023-01-25T02:41:13.900Z,-1.29
2023-01-25T02:43:41.969Z,-0.99
2023-01-25T02:46:27.896Z,-0.99
2023-01-25T02:48:56.292Z,-1.22
2023-01-25T02:51:26.378Z,-1.10
2023-01-25T02:53:55.964Z,-1.18
2023-01-25T02:56:24.415Z,-1.36
2023-01-25T02:58:52.273Z,-1.25
2023-01-25T03:01:21.072Z,-1.40
2023-01-25T03:03:48.917Z,-1.29
2023-01-25T03:06:17.074Z,-1.19
2023-01-25T03:08:44.479Z,-1.05
2023-01-25T03:11:12.143Z,-1.02
2023-01-25T03:13:39.561Z,-1.09
2023-01-25T03:16:11.710Z,-1.17
2023-01-25T03:18:41.821Z,-1.08
2023-01-25T03:21:15.647Z,-1.05
2023-01-25T03:23:44.959Z,-1.09
2023-01-25T03:26:18.371Z,-1.19
2023-01-25T03:29:02.773Z,-1.44
2023-01-25T03:31:30.492Z,-1.28
2023-01-25T03:33:57.838Z,-1.39
2023-01-25T03:36:29.836Z,-1.37
2023-01-25T03:38:57.371Z,-1.38
2023-01-25T03:41:25.014Z,-1.51
2023-01-25T03:43:52.707Z,-1.56
2023-01-25T03:46:20.333Z,-1.62
2023-01-25T03:48:48.265Z,-1.76
2023-01-25T03:51:16.731Z,-1.80
2023-01-25T03:53:44.128Z,-1.79
2023-01-25T03:56:20.093Z,-1.77
2023-01-25T03:58:56.726Z,-1.60
2023-01-25T04:01:24.543Z,-1.63
2023-01-25T04:03:51.931Z,-1.74
2023-01-25T04:06:19.631Z,-1.59
2023-01-25T04:08:47.023Z,-1.52
2023-01-25T04:11:14.682Z,-1.59
2023-01-25T04:13:45.285Z,-1.65
2023-01-25T04:16:15.707Z,-1.68
2023-01-25T04:19:01.925Z,-1.36
2023-01-25T04:21:31.270Z,-1.52
2023-01-25T04:23:59.000Z,-1.56
2023-01-25T04:26:26.712Z,-1.45
2023-01-25T04:28:58.607Z,-1.61
2023-01-25T04:31:26.313Z,-1.47
2023-01-25T04:33:53.749Z,-1.38
2023-01-25T04:36:21.392Z,-1.39
2023-01-25T04:38:48.796Z,-1.87
2023-01-25T04:41:16.332Z,-1.71
2023-01-25T04:43:44.845Z,-1.59
2023-01-25T04:46:13.522Z,-1.62
2023-01-25T04:48:41.170Z,-1.62
2023-01-25T04:51:09.599Z,-1.69
2023-01-25T04:53:37.089Z,-1.59
2023-01-25T04:56:07.235Z,-1.54
2023-01-25T04:58:43.398Z,-1.57
2023-01-25T05:01:11.821Z,-1.54
2023-01-25T05:03:39.190Z,-1.51
2023-01-25T05:06:13.503Z,-1.64
2023-01-25T05:08:40.997Z,-1.58
2023-01-25T05:11:08.628Z,-1.65
2023-01-25T05:14:05.112Z,-1.68
2023-01-25T05:16:34.258Z,-1.55
2023-01-25T05:19:02.513Z,-1.60
2023-01-25T05:21:58.093Z,-1.48
2023-01-25T05:24:32.562Z,-1.53
2023-01-25T05:27:04.049Z,-1.48
2023-01-25T05:29:57.964Z,-1.56
2023-01-25T05:32:50.318Z,-1.50
2023-01-25T05:35:18.554Z,-1.57
2023-01-25T05:37:46.882Z,-1.65
2023-01-25T05:40:21.905Z,-1.82
2023-01-25T05:43:02.695Z,-1.61
2023-01-25T05:45:31.267Z,-1.61
2023-01-25T05:47:59.367Z,-1.46
2023-01-25T05:50:27.077Z,-1.46
2023-01-25T05:53:01.048Z,-1.50
2023-01-25T05:55:29.548Z,-1.52
2023-01-25T05:58:01.228Z,-1.45
2023-01-25T06:00:28.863Z,-1.38
2023-01-25T06:03:01.040Z,-1.49
2023-01-25T06:05:29.823Z,-1.45
2023-01-25T06:07:58.690Z,-1.33
2023-01-25T06:10:30.499Z,-1.35
2023-01-25T06:12:59.236Z,-1.28
2023-01-25T06:15:27.202Z,-1.34
2023-01-25T06:17:58.941Z,-1.28
2023-01-25T06:20:39.361Z,-1.41
2023-01-25T06:23:07.027Z,-1.35
2023-01-25T06:25:34.277Z,-1.24
2023-01-25T06:28:01.897Z,-1.38
2023-01-25T06:30:29.280Z,-1.43
2023-01-25T06:33:00.578Z,-1.28
2023-01-25T06:35:29.073Z,-1.46
2023-01-25T06:37:57.549Z,-1.41
2023-01-25T06:40:25.828Z,-1.31
2023-01-25T06:42:53.693Z,-1.44
2023-01-25T06:45:21.045Z,-1.22
2023-01-25T06:47:49.277Z,-1.10
2023-01-25T06:50:16.658Z,-1.16
2023-01-25T06:52:51.998Z,-1.28
2023-01-25T06:55:19.747Z,-1.30
2023-01-25T06:57:48.074Z,-1.40
2023-01-25T07:00:18.809Z,-1.43
2023-01-25T07:02:46.637Z,-1.17
2023-01-25T07:05:14.086Z,-1.46
2023-01-25T07:07:45.268Z,-1.43
2023-01-25T07:10:12.716Z,-1.17
2023-01-25T07:12:40.425Z,-1.12
2023-01-25T07:15:08.667Z,-1.15
2023-01-25T07:17:36.575Z,-1.36
2023-01-25T07:20:04.094Z,-1.17
2023-01-25T07:22:31.650Z,-1.22
2023-01-25T07:24:59.112Z,-1.29
2023-01-25T07:27:26.670Z,-1.20
2023-01-25T07:29:54.188Z,-1.21
2023-01-25T07:32:21.766Z,-1.01
2023-01-25T07:34:49.021Z,-1.16
2023-01-25T07:37:16.718Z,-0.89
2023-01-25T07:39:49.605Z,-0.82
2023-01-25T07:42:17.271Z,-0.75
2023-01-25T07:44:52.131Z,-0.81
2023-01-25T07:47:19.762Z,-0.70
2023-01-25T07:49:47.022Z,-0.67
2023-01-25T07:52:14.710Z,-0.67
2023-01-25T07:54:42.061Z,-0.72
2023-01-25T07:57:09.684Z,-0.74
2023-01-25T07:59:36.934Z,-0.74
2023-01-25T08:02:04.469Z,-0.71
2023-01-25T08:04:31.764Z,-0.75
2023-01-25T08:06:59.477Z,-0.80
2023-01-25T08:09:26.865Z,-0.86
2023-01-25T08:11:54.808Z,-0.71
2023-01-25T08:14:22.191Z,-0.67
2023-01-25T08:16:49.728Z,-0.55
2023-01-25T08:19:17.069Z,-0.60
2023-01-25T08:21:44.682Z,-0.63
2023-01-25T08:24:12.070Z,-0.43
2023-01-25T08:26:39.683Z,-0.46
2023-01-25T08:29:07.145Z,-0.55
2023-01-25T08:31:35.800Z,-0.59
2023-01-25T08:34:03.678Z,-0.59
2023-01-25T08:36:31.280Z,-0.57
2023-01-25T08:39:01.003Z,-0.55
2023-01-25T08:41:30.571Z,-0.53
2023-01-25T08:43:58.639Z,-0.52
2023-01-25T08:46:30.346Z,-0.65
2023-01-25T08:49:01.207Z,-0.46
2023-01-25T08:51:29.731Z,-0.43
2023-01-25T08:53:57.303Z,-0.32
2023-01-25T08:56:25.158Z,-0.36
2023-01-25T08:58:52.493Z,-0.36
2023-01-25T09:01:20.452Z,-0.35
2023-01-25T09:03:49.738Z,-0.40
2023-01-25T09:06:18.457Z,-0.36
2023-01-25T09:08:46.119Z,-0.40
2023-01-25T09:11:19.583Z,-0.42
2023-01-25T09:13:48.523Z,-0.30
2023-01-25T09:16:20.736Z,-0.48
2023-01-25T09:18:50.525Z,-0.26
2023-01-25T09:21:19.471Z,-0.18
2023-01-25T09:24:05.433Z,-0.23
2023-01-25T09:26:36.440Z,-0.51
2023-01-25T09:29:04.093Z,-0.42
2023-01-25T09:31:31.840Z,-0.54
2023-01-25T09:34:04.886Z,-0.83
2023-01-25T09:36:32.419Z,-0.50
2023-01-25T09:39:00.008Z,-0.26
2023-01-25T09:41:33.637Z,-0.20
2023-01-25T09:44:26.659Z,0.18
2023-01-25T09:46:58.584Z,0.25
2023-01-25T09:49:47.205Z,0.30
2023-01-25T09:52:57.022Z,0.26
2023-01-25T09:55:27.877Z,0.22
2023-01-25T09:58:00.358Z,0.34
2023-01-25T10:00:36.222Z,0.39
2023-01-25T10:03:25.077Z,0.44
2023-01-25T10:05:58.005Z,0.18
2023-01-25T10:08:32.931Z,0.38
2023-01-25T10:11:11.914Z,0.46
2023-01-25T10:13:39.679Z,0.59
2023-01-25T10:16:24.556Z,0.61
2023-01-25T10:19:20.028Z,0.11
2023-01-25T10:21:56.443Z,0.42
2023-01-25T10:24:45.583Z,0.61
2023-01-25T10:27:31.728Z,0.77
2023-01-25T10:30:02.666Z,1.10
2023-01-25T10:32:35.832Z,1.08
2023-01-25T10:35:34.334Z,1.50
2023-01-25T10:38:10.615Z,1.12
2023-01-25T10:40:52.700Z,1.60
2023-01-25T10:43:23.397Z,1.48
2023-01-25T10:45:51.704Z,1.67
2023-01-25T10:48:27.922Z,0.84
2023-01-25T10:50:57.675Z,1.26
2023-01-25T10:53:28.018Z,0.95
2023-01-25T10:56:12.250Z,2.14
2023-01-25T10:58:48.720Z,3.22
2023-01-25T11:01:31.596Z,3.03
2023-01-25T11:04:00.237Z,3.30
2023-01-25T11:06:36.995Z,3.17
2023-01-25T11:09:22.524Z,3.30
2023-01-25T11:12:00.838Z,4.05
2023-01-25T11:14:31.219Z,4.13
2023-01-25T11:17:01.187Z,4.67
2023-01-25T11:19:37.480Z,5.11
2023-01-25T11:22:21.731Z,4.26
2023-01-25T11:24:49.100Z,4.41
2023-01-25T11:27:25.976Z,3.38
2023-01-25T11:30:05.395Z,3.79
2023-01-25T11:32:33.493Z,2.52
2023-01-25T11:35:01.143Z,2.42
2023-01-25T11:37:54.477Z,1.53
2023-01-25T11:40:34.022Z,1.08
2023-01-25T11:43:39.200Z,0.61
2023-01-25T11:46:40.667Z,0.60
2023-01-25T11:49:30.963Z,0.42
2023-01-25T11:52:08.792Z,0.23
2023-01-25T11:55:17.348Z,0.34
2023-01-25T11:58:19.817Z,0.27
2023-01-25T12:00:50.447Z,0.32
2023-01-25T12:03:51.983Z,0.23
2023-01-25T12:06:37.899Z,0.16
2023-01-25T12:09:26.518Z,0.15
2023-01-25T12:12:00.118Z,0.31
2023-01-25T12:14:52.118Z,0.40
2023-01-25T12:17:28.466Z,0.52
2023-01-25T12:20:01.779Z,0.51
2023-01-25T12:22:51.213Z,0.55
2023-01-25T12:25:37.154Z,0.56
2023-01-25T12:28:12.028Z,0.48
2023-01-25T12:30:48.578Z,0.55
2023-01-25T12:33:20.969Z,0.59
2023-01-25T12:36:04.506Z,0.28
2023-01-25T12:39:04.610Z,0.54
2023-01-25T12:41:44.028Z,0.50
2023-01-25T12:44:18.747Z,0.40
2023-01-25T12:46:53.859Z,0.44
2023-01-25T12:49:33.474Z,0.42
2023-01-25T12:52:06.194Z,0.28
2023-01-25T12:54:42.864Z,0.24
2023-01-25T12:57:30.290Z,0.43
2023-01-25T13:00:14.650Z,0.45
2023-01-25T13:03:06.970Z,0.38
2023-01-25T13:05:39.375Z,0.29
2023-01-25T13:08:33.252Z,0.38
2023-01-25T13:11:19.466Z,0.40
2023-01-25T13:13:46.882Z,0.28
2023-01-25T13:16:25.204Z,0.26
2023-01-25T13:18:52.562Z,0.28
2023-01-25T13:21:56.649Z,0.36
2023-01-25T13:24:31.199Z,0.31
2023-01-25T13:27:00.321Z,0.03
2023-01-25T13:29:36.415Z,0.01
2023-01-25T13:32:24.913Z,0.13
2023-01-25T13:34:55.245Z,0.18
2023-01-25T13:37:31.537Z,0.20
2023-01-25T13:40:25.820Z,0.19
2023-01-25T13:43:02.104Z,0.28
2023-01-25T13:45:32.355Z,0.16
2023-01-25T13:48:13.277Z,0.12
2023-01-25T13:50:49.170Z,0.09
2023-01-25T13:53:16.663Z,0.23
2023-01-25T13:55:50.056Z,0.04
2023-01-25T13:58:25.595Z,0.02
2023-01-25T14:00:59.016Z,-0.19
2023-01-25T14:03:43.021Z,0.02
2023-01-25T14:06:19.068Z,-0.15
2023-01-25T14:08:47.777Z,-0.03
2023-01-25T14:11:24.091Z,-0.21
2023-01-25T14:14:26.842Z,-0.07
2023-01-25T14:17:04.674Z,-0.21
2023-01-25T14:19:32.307Z,-0.31
2023-01-25T14:22:28.429Z,-0.23
2023-01-25T14:25:14.218Z,-0.40
2023-01-25T14:27:53.782Z,-0.42
2023-01-25T14:30:23.264Z,-0.29
2023-01-25T14:32:52.482Z,-0.30
2023-01-25T14:35:42.359Z,-0.28
2023-01-25T14:38:30.368Z,-0.39
2023-01-25T14:41:22.267Z,-0.51
2023-01-25T14:43:53.241Z,-0.62
2023-01-25T14:46:28.551Z,-0.61
2023-01-25T14:49:28.176Z,-0.63
2023-01-25T14:52:16.580Z,-0.56
2023-01-25T14:54:53.188Z,-0.58
2023-01-25T14:57:35.813Z,-0.76
2023-01-25T15:00:17.041Z,-0.84
2023-01-25T15:02:48.045Z,-0.79
2023-01-25T15:05:27.564Z,-0.92
2023-01-25T15:07:58.884Z,-1.08
2023-01-25T15:10:31.558Z,-1.10
2023-01-25T15:13:13.273Z,-1.00
2023-01-25T15:15:58.620Z,-1.20
2023-01-25T15:18:52.773Z,-1.31
2023-01-25T15:21:25.661Z,-1.27
2023-01-25T15:23:55.238Z,-1.47
2023-01-25T15:26:28.453Z,-1.58
2023-01-25T15:28:58.870Z,-1.52
2023-01-25T15:31:32.800Z,-1.62
2023-01-25T15:34:01.738Z,-1.81
2023-01-25T15:36:31.067Z,-1.77
2023-01-25T15:38:58.784Z,-1.70
2023-01-25T15:41:26.187Z,-1.98
2023-01-25T15:43:53.912Z,-1.78
2023-01-25T15:46:25.138Z,-1.86
2023-01-25T15:48:53.567Z,-1.80
2023-01-25T15:51:21.305Z,-1.79
2023-01-25T15:53:48.924Z,-1.69
2023-01-25T15:56:19.343Z,-1.79
2023-01-25T15:58:59.747Z,-1.63
2023-01-25T16:01:29.175Z,-2.01
2023-01-25T16:03:59.008Z,-2.19
2023-01-25T16:06:41.516Z,-2.13
2023-01-25T16:09:15.642Z,-1.93
2023-01-25T16:11:43.648Z,-1.77
2023-01-25T16:14:11.598Z,-1.71
2023-01-25T16:16:45.371Z,-1.88
2023-01-25T16:19:15.478Z,-2.14
2023-01-25T16:21:43.431Z,-2.24
2023-01-25T16:24:12.162Z,-2.29
2023-01-25T16:26:44.631Z,-2.53
2023-01-25T16:29:12.517Z,-2.35
2023-01-25T16:31:39.900Z,-2.38
2023-01-25T16:34:07.480Z,-2.50
2023-01-25T16:36:35.317Z,-2.51
2023-01-25T16:39:28.935Z,-2.61
2023-01-25T16:41:57.585Z,-2.53
2023-01-25T16:44:25.356Z,-2.60
2023-01-25T16:46:52.655Z,-2.54
2023-01-25T16:49:22.553Z,-2.45
2023-01-25T16:51:50.682Z,-2.63
2023-01-25T16:54:20.037Z,-2.55
2023-01-25T16:56:48.896Z,-2.72
2023-01-25T16:59:18.240Z,-2.73
2023-01-25T17:01:46.414Z,-2.84
2023-01-25T17:04:14.766Z,-2.94
2023-01-25T17:06:44.800Z,-2.70
2023-01-25T17:09:25.376Z,-2.68
2023-01-25T17:11:54.271Z,-2.85
2023-01-25T17:14:23.077Z,-2.81
2023-01-25T17:16:55.102Z,-2.94
2023-01-25T17:19:22.597Z,-2.99
2023-01-25T17:21:50.111Z,-3.12
2023-01-25T17:24:21.236Z,-3.14
2023-01-25T17:26:48.635Z,-3.10
2023-01-25T17:29:16.300Z,-3.15
2023-01-25T17:31:44.586Z,-3.23
2023-01-25T17:34:16.096Z,-3.28
2023-01-25T17:36:44.056Z,-3.38
2023-01-25T17:39:16.847Z,-3.35
2023-01-25T17:41:45.358Z,-3.35
2023-01-25T17:44:14.235Z,-3.26
2023-01-25T17:46:41.526Z,-3.27
2023-01-25T17:49:12.817Z,-3.36
2023-01-25T17:51:40.286Z,-3.25
2023-01-25T17:54:08.316Z,-3.29
2023-01-25T17:56:37.904Z,-3.23
2023-01-25T17:59:09.146Z,-2.97
2023-01-25T18:01:36.686Z,-2.90
2023-01-25T18:04:07.740Z,-2.94
2023-01-25T18:06:35.389Z,-2.85
2023-01-25T18:09:04.383Z,-2.89
2023-01-25T18:11:35.297Z,-2.70
2023-01-25T18:14:08.313Z,-2.46
2023-01-25T18:16:38.842Z,-2.57
2023-01-25T18:19:07.631Z,-2.21
2023-01-25T18:21:35.828Z,-2.05
2023-01-25T18:24:25.084Z,-1.99
2023-01-25T18:26:59.345Z,-1.95
2023-01-25T18:30:02.404Z,-1.68
2023-01-25T18:32:32.857Z,-1.87
2023-01-25T18:35:00.618Z,-1.83
2023-01-25T18:37:33.491Z,-1.79
2023-01-25T18:40:01.119Z,-1.74
2023-01-25T18:42:28.430Z,-1.92
2023-01-25T18:44:56.017Z,-2.12
2023-01-25T18:47:23.889Z,-2.47
2023-01-25T18:49:53.219Z,-2.42
2023-01-25T18:52:22.529Z,-1.93
2023-01-25T18:54:50.421Z,-1.79
2023-01-25T18:57:17.824Z,-1.73
2023-01-25T18:59:45.756Z,-1.69
2023-01-25T19:02:16.022Z,-1.48
2023-01-25T19:04:44.286Z,-1.66
2023-01-25T19:07:12.325Z,-1.59
2023-01-25T19:09:42.319Z,-1.48
2023-01-25T19:12:10.168Z,-1.72
2023-01-25T19:14:37.874Z,-1.41
2023-01-25T19:17:05.114Z,-1.55
2023-01-25T19:19:34.114Z,-1.52
2023-01-25T19:22:01.561Z,-1.42
2023-01-25T19:24:29.201Z,-1.50
2023-01-25T19:26:56.814Z,-1.65
2023-01-25T19:29:24.419Z,-1.37
2023-01-25T19:31:51.767Z,-1.31
2023-01-25T19:34:19.405Z,-1.30
2023-01-25T19:36:50.056Z,-1.25
2023-01-25T19:39:18.176Z,-1.40
2023-01-25T19:41:46.559Z,-1.50
2023-01-25T19:44:15.007Z,-1.51
2023-01-25T19:46:42.784Z,-1.58
2023-01-25T19:49:11.840Z,-1.46
2023-01-25T19:51:42.273Z,-1.39
2023-01-25T19:54:17.210Z,-1.37
2023-01-25T19:56:49.526Z,-1.30
2023-01-25T19:59:19.762Z,-1.41
2023-01-25T20:01:47.964Z,-1.66
2023-01-25T20:04:19.759Z,-1.61
2023-01-25T20:06:48.121Z,-1.52
2023-01-25T20:09:17.492Z,-1.54
2023-01-25T20:11:46.358Z,-1.58
2023-01-25T20:14:14.334Z,-1.39
2023-01-25T20:16:41.670Z,-1.36
2023-01-25T20:19:12.023Z,-1.24
2023-01-25T20:21:39.941Z,-1.24
2023-01-25T20:24:09.928Z,-1.68
2023-01-25T20:26:39.776Z,-1.39
2023-01-25T20:29:08.241Z,-1.30
2023-01-25T20:31:38.010Z,-1.47
2023-01-25T20:34:16.830Z,-1.58
2023-01-25T20:36:45.025Z,-1.59
2023-01-25T20:39:14.933Z,-1.64
2023-01-25T20:41:42.665Z,-1.64
2023-01-25T20:44:12.752Z,-1.61
2023-01-25T20:46:42.076Z,-1.43
2023-01-25T20:49:14.388Z,-1.47
2023-01-25T20:51:42.934Z,-1.36
2023-01-25T20:54:11.228Z,-1.44
2023-01-25T20:56:39.143Z,-1.37
2023-01-25T20:59:06.885Z,-1.28
2023-01-25T21:01:37.092Z,-1.20
2023-01-25T21:04:07.194Z,-1.18
2023-01-25T21:06:35.436Z,-1.26
2023-01-25T21:09:04.262Z,-1.40
2023-01-25T21:11:32.388Z,-1.28
2023-01-25T21:14:00.246Z,-1.31
2023-01-25T21:16:27.769Z,-1.27
2023-01-25T21:19:00.301Z,-1.56
2023-01-25T21:21:32.702Z,-1.61
2023-01-25T21:24:02.652Z,-1.47
2023-01-25T21:26:32.812Z,-1.42
2023-01-25T21:29:01.770Z,-1.28
2023-01-25T21:31:32.987Z,-1.29
2023-01-25T21:34:01.515Z,-1.23
2023-01-25T21:36:29.443Z,-1.25
2023-01-25T21:38:58.177Z,-1.31
2023-01-25T21:41:29.460Z,-1.41
2023-01-25T21:44:17.708Z,-1.18
2023-01-25T21:47:06.078Z,-1.29
2023-01-25T21:49:52.035Z,-1.29
2023-01-25T21:52:19.305Z,-1.43
2023-01-25T21:54:46.897Z,-1.28
2023-01-25T21:57:14.248Z,-1.41
2023-01-25T21:59:41.825Z,-1.60
2023-01-25T22:02:14.138Z,-1.45
2023-01-25T22:04:41.990Z,-1.31
2023-01-25T22:07:09.949Z,-1.45
2023-01-25T22:09:37.703Z,-1.50
2023-01-25T22:12:05.361Z,-1.70
2023-01-25T22:14:32.923Z,-1.62
2023-01-25T22:17:00.362Z,-1.62
2023-01-25T22:19:27.914Z,-1.52
2023-01-25T22:21:55.121Z,-1.63
2023-01-25T22:24:22.887Z,-1.94
2023-01-25T22:27:28.829Z,-1.62
2023-01-25T22:29:56.378Z,-1.51
2023-01-25T22:32:23.606Z,-1.30
2023-01-25T22:34:51.276Z,-1.32
2023-01-25T22:37:18.555Z,-1.41
2023-01-25T22:39:46.263Z,-1.33
2023-01-25T22:42:13.594Z,-1.40
2023-01-25T22:44:41.361Z,-1.33
2023-01-25T22:47:08.654Z,-1.16
2023-01-25T22:49:36.190Z,-1.29
2023-01-25T22:52:03.500Z,-1.31
2023-01-25T22:54:31.063Z,-1.32
2023-01-25T22:56:59.802Z,-1.41
2023-01-25T22:59:27.422Z,-1.23
2023-01-25T23:01:54.635Z,-1.28
2023-01-25T23:04:22.237Z,-1.35
2023-01-25T23:06:49.692Z,-1.42
2023-01-25T23:09:17.229Z,-1.45
2023-01-25T23:11:44.428Z,-1.37
2023-01-25T23:14:31.017Z,-1.43
2023-01-25T23:17:18.210Z,-1.62
2023-01-25T23:19:45.943Z,-1.56
2023-01-25T23:22:13.397Z,-1.57
2023-01-25T23:24:41.000Z,-1.39
2023-01-25T23:27:08.376Z,-1.41
2023-01-25T23:29:37.232Z,-1.43
2023-01-25T23:32:04.667Z,-1.42
2023-01-25T23:34:34.947Z,-1.53
2023-01-25T23:37:02.302Z,-1.50
2023-01-25T23:39:29.883Z,-1.54
2023-01-25T23:41:57.108Z,-1.81
2023-01-25T23:44:24.680Z,-1.55
2023-01-25T23:46:51.908Z,-1.39
2023-01-25T23:49:19.434Z,-1.46
2023-01-25T23:51:46.679Z,-1.45
2023-01-25T23:54:14.433Z,-1.58
2023-01-25T23:56:41.641Z,-1.65
2023-01-25T23:59:09.223Z,-1.60
